Tropical Cyclones
[Index]
Main Index Home Page Stock Weather Photos Extreme Storms Discussion Storm News and Storm Chasing Reports Tropical Cyclones / Hurricanes / Typhoons Weather Data and Links Wild Fires / Bushfires Weather Observation Techniques Weather Picture Catalogue Tornado Pictures and Reports Stock Video Footage and DVDs for sale
Season 1984-1985 Tropical Cyclone TANYA Track Map
Season 1984-1985 Summaries: [BoM-AU] [JTWC-AU] [JTWC-SIO] [JTWC-SPAC] [JTWC-SH]
<<- Previous TC | JTWC 1984-1985 Season | Next TC ->>

click for intensity scale information  Lat/long Grid: Show Hide

 Date Labels: Show Hide

Joint Typhoon Warning Centre Cyclone Data

Name: TANYA

28 Mar 1985 12:00 UTC to 04 Apr 1985 12:00 UTC

    date/time    lat    long     hPa   cat  kts
1985-03-28 12   13.3   150.4                  25          
1985-03-28 18   13.5   149.9                  30          
1985-03-29 00   13.6   149.4                  35          
1985-03-29 06   13.7   148.8            1     40          
1985-03-29 12   13.7   148.3            1     45          
1985-03-29 18   13.7   147.8            1     50          
1985-03-30 00   13.7   147.3            2     55          
1985-03-30 06   13.7   146.8            2     60          
1985-03-30 12   13.7   146.3            2     60          
1985-03-30 18   13.7   145.8            2     60          
1985-03-31 00   13.7   145.3            2     60          
1985-03-31 06   13.7   144.8            2     60          
1985-03-31 12   13.7   144.3            2     55          
1985-03-31 18   13.7   143.8            1     50          
1985-04-01 00   13.9   143.3            1     45          
1985-04-01 06   14.1   142.9            1     40          
1985-04-01 12   14.3   142.6                  30          
1985-04-01 18   14.5   142.2                  25          
1985-04-02 00   14.7   141.8                  20          
1985-04-02 06   14.9   141.3                  20          
1985-04-02 12   14.9   140.8                  20          
1985-04-02 18   14.7   140.2                  25          
1985-04-03 00   14.4   139.6                  25          
1985-04-03 06   14.0   139.1                  25          
1985-04-03 12   13.7   138.7                  25          
1985-04-03 18   13.4   138.0                  25          
1985-04-04 00   13.2   137.2                  25          
1985-04-04 06   13.1   136.2                  25          
1985-04-04 12   13.2   135.1                  20          
Winds are 1-min average.

Tropical cyclone tracks developed by Michael Bath using data from the Joint Typhoon Warning Centre Best Tracks and Google Maps.


[Australian Severe Weather index] [Copyright Notice] [Email Contacts] [Search This Site] [Privacy Policy]
Document: tropical_cyclone_tanya.htm Updated: 18 September 2016